createdAt,value
2019-01-12T00:01:01.929Z,16.65
2019-01-12T00:03:31.482Z,17.30
2019-01-12T00:06:01.186Z,16.48
2019-01-12T00:08:30.898Z,19.23
2019-01-12T00:11:00.570Z,17.53
2019-01-12T00:13:30.180Z,15.57
2019-01-12T00:15:59.960Z,17.30
2019-01-12T00:18:29.714Z,14.23
2019-01-12T00:20:59.366Z,13.17
2019-01-12T00:23:29.108Z,18.00
2019-01-12T00:25:58.651Z,14.87
2019-01-12T00:28:28.303Z,14.57
2019-01-12T00:30:58.215Z,11.87
2019-01-12T00:33:27.810Z,12.28
2019-01-12T00:35:57.549Z,9.83
2019-01-12T00:38:29.354Z,11.48
2019-01-12T00:40:58.841Z,8.57
2019-01-12T00:43:28.689Z,10.93
2019-01-12T00:45:58.441Z,13.77
2019-01-12T00:48:28.175Z,11.83
2019-01-12T00:50:58.008Z,14.73
2019-01-12T00:53:27.593Z,13.93
2019-01-12T00:55:57.344Z,12.57
2019-01-12T00:58:27.244Z,15.23
2019-01-12T01:00:56.797Z,14.77
2019-01-12T01:03:26.461Z,14.60
2019-01-12T01:05:56.169Z,16.60
2019-01-12T01:08:25.674Z,12.80
2019-01-12T01:10:55.221Z,12.07
2019-01-12T01:13:24.959Z,14.47
2019-01-12T01:15:54.602Z,10.60
2019-01-12T01:18:24.290Z,12.33
2019-01-12T01:20:54.130Z,10.83
2019-01-12T01:23:23.691Z,14.17
2019-01-12T01:25:53.219Z,12.20
2019-01-12T01:28:23.150Z,15.30
2019-01-12T01:30:52.729Z,15.93
2019-01-12T01:33:27.935Z,14.17
2019-01-12T01:35:54.040Z,14.63
2019-01-12T01:38:23.689Z,13.53
2019-01-12T01:40:53.672Z,12.20
2019-01-12T01:43:23.624Z,12.07
2019-01-12T01:45:53.432Z,13.57
2019-01-12T01:48:23.179Z,9.83
2019-01-12T01:50:52.809Z,13.13
2019-01-12T01:53:22.431Z,13.77
2019-01-12T01:55:52.095Z,9.30
2019-01-12T01:58:21.807Z,9.47
2019-01-12T02:00:51.368Z,14.53
2019-01-12T02:03:20.822Z,14.97
2019-01-12T02:05:50.861Z,14.07
2019-01-12T02:08:20.407Z,18.17
2019-01-12T02:10:49.989Z,13.20
2019-01-12T02:13:19.720Z,11.68
2019-01-12T02:15:49.348Z,17.37
2019-01-12T02:18:18.990Z,14.18
2019-01-12T02:20:48.748Z,15.57
2019-01-12T02:23:18.240Z,17.53
2019-01-12T02:25:47.749Z,19.23
2019-01-12T02:28:17.522Z,14.98
2019-01-12T02:30:47.192Z,20.02
2019-01-12T02:33:16.729Z,17.10
2019-01-12T02:35:46.511Z,13.50
2019-01-12T02:38:16.042Z,13.33
2019-01-12T02:40:45.677Z,17.17
2019-01-12T02:43:15.496Z,15.07
2019-01-12T02:45:45.071Z,16.73
2019-01-12T02:48:14.642Z,15.63
2019-01-12T02:50:44.503Z,19.83
2019-01-12T02:53:14.141Z,24.20
2019-01-12T02:55:43.789Z,23.10
2019-01-12T02:58:13.640Z,19.03
2019-01-12T03:00:43.211Z,22.93
2019-01-12T03:03:12.810Z,26.83
2019-01-12T03:05:42.644Z,16.10
2019-01-12T03:08:12.430Z,13.47
2019-01-12T03:10:42.164Z,12.00
2019-01-12T03:13:11.774Z,15.00
2019-01-12T03:15:41.665Z,13.60
2019-01-12T03:18:11.559Z,15.87
2019-01-12T03:20:41.564Z,13.63
2019-01-12T03:23:11.416Z,13.80
2019-01-12T03:25:41.096Z,11.70
2019-01-12T03:28:10.919Z,10.93
2019-01-12T03:30:40.580Z,14.47
2019-01-12T03:33:10.370Z,13.20
2019-01-12T03:35:40.362Z,12.10
2019-01-12T03:38:10.047Z,8.87
2019-01-12T03:40:39.856Z,10.30
2019-01-12T03:43:09.547Z,12.20
2019-01-12T03:45:39.366Z,11.13
2019-01-12T03:48:09.103Z,10.75
2019-01-12T03:50:38.948Z,7.37
2019-01-12T03:53:09.119Z,10.50
2019-01-12T03:55:38.863Z,11.17
2019-01-12T03:58:09.153Z,12.60
2019-01-12T04:00:38.961Z,8.47
2019-01-12T04:03:08.527Z,8.43
2019-01-12T04:05:38.365Z,6.90
2019-01-12T04:08:09.182Z,7.27
2019-01-12T04:10:39.353Z,7.20
2019-01-12T04:13:09.518Z,7.40
2019-01-12T04:15:39.299Z,4.13
2019-01-12T04:18:09.244Z,4.75
2019-01-12T04:20:38.955Z,6.57
2019-01-12T04:23:08.939Z,7.23
2019-01-12T04:25:38.806Z,4.57
2019-01-12T04:28:08.524Z,8.00
2019-01-12T04:30:38.474Z,5.60
2019-01-12T04:33:08.277Z,6.00
2019-01-12T04:35:37.987Z,8.20
2019-01-12T04:38:07.845Z,11.13
2019-01-12T04:40:37.777Z,10.00
2019-01-12T04:43:07.370Z,13.67
2019-01-12T04:45:37.093Z,17.60
2019-01-12T04:48:07.064Z,16.70
2019-01-12T04:50:36.651Z,14.55
2019-01-12T04:53:06.280Z,18.20
2019-01-12T04:55:41.193Z,17.23
2019-01-12T04:58:07.306Z,18.75
2019-01-12T05:00:37.024Z,18.03
2019-01-12T05:03:06.818Z,19.10
2019-01-12T05:05:36.596Z,27.57
2019-01-12T05:08:06.529Z,20.13
2019-01-12T05:10:36.075Z,19.27
2019-01-12T05:13:05.630Z,25.57
2019-01-12T05:15:35.337Z,15.90
2019-01-12T05:18:05.004Z,16.52
2019-01-12T05:20:34.704Z,19.75
2019-01-12T05:23:04.694Z,23.30
2019-01-12T05:25:34.246Z,24.37
2019-01-12T05:28:03.914Z,19.77
2019-01-12T05:30:33.819Z,18.87
2019-01-12T05:33:03.431Z,15.93
2019-01-12T05:35:33.558Z,16.07
2019-01-12T05:38:03.433Z,14.20
2019-01-12T05:40:33.012Z,15.67
2019-01-12T05:43:02.780Z,15.60
2019-01-12T05:45:32.560Z,17.47
2019-01-12T05:48:02.720Z,16.07
2019-01-12T05:50:32.644Z,11.47
2019-01-12T05:53:02.542Z,15.15
2019-01-12T05:55:32.352Z,11.37
2019-01-12T05:58:02.164Z,13.30
2019-01-12T06:00:31.851Z,15.43
2019-01-12T06:03:01.418Z,15.53
2019-01-12T06:05:31.112Z,18.00
2019-01-12T06:08:00.893Z,15.43
2019-01-12T06:10:30.473Z,13.93
2019-01-12T06:13:00.243Z,18.40
2019-01-12T06:15:30.248Z,18.03
2019-01-12T06:17:59.972Z,24.37
2019-01-12T06:20:29.611Z,17.40
2019-01-12T06:22:59.457Z,21.40
2019-01-12T06:25:29.248Z,16.73
2019-01-12T06:27:58.898Z,14.57
2019-01-12T06:30:28.805Z,20.50
2019-01-12T06:32:58.374Z,19.70
2019-01-12T06:35:28.020Z,15.40
2019-01-12T06:37:57.751Z,19.03
2019-01-12T06:40:27.332Z,29.63
2019-01-12T06:42:57.012Z,26.43
2019-01-12T06:45:26.883Z,19.07
2019-01-12T06:47:56.560Z,25.13
2019-01-12T06:50:26.265Z,22.47
2019-01-12T06:52:56.012Z,24.20
2019-01-12T06:55:25.576Z,23.90
2019-01-12T06:57:55.114Z,22.47
2019-01-12T07:00:24.893Z,19.83
2019-01-12T07:02:54.641Z,17.52
2019-01-12T07:05:24.193Z,21.00
2019-01-12T07:07:54.078Z,20.57
2019-01-12T07:10:23.723Z,18.98
2019-01-12T07:12:53.258Z,14.87
2019-01-12T07:15:23.224Z,13.30
2019-01-12T07:17:52.796Z,17.20
2019-01-12T07:20:22.360Z,16.93
2019-01-12T07:22:52.450Z,21.10
2019-01-12T07:25:21.967Z,14.17
2019-01-12T07:27:51.611Z,18.57
2019-01-12T07:30:23.213Z,13.97
2019-01-12T07:32:52.937Z,15.72
2019-01-12T07:35:22.450Z,13.60
2019-01-12T07:37:52.262Z,13.97
2019-01-12T07:40:21.913Z,16.90
2019-01-12T07:42:51.506Z,15.17
2019-01-12T07:45:21.318Z,14.70
2019-01-12T07:47:50.856Z,14.63
2019-01-12T07:50:20.874Z,16.97
2019-01-12T07:52:50.765Z,15.50
2019-01-12T07:55:20.465Z,15.87
2019-01-12T07:57:50.092Z,15.10
2019-01-12T08:00:21.761Z,15.20
2019-01-12T08:02:51.481Z,15.57
2019-01-12T08:05:22.175Z,14.20
2019-01-12T08:07:52.056Z,16.47
2019-01-12T08:10:27.098Z,16.27
2019-01-12T08:12:57.101Z,17.33
2019-01-12T08:15:27.009Z,17.33
2019-01-12T08:17:56.698Z,15.87
2019-01-12T08:20:26.469Z,18.83
2019-01-12T08:22:56.150Z,19.63
2019-01-12T08:25:25.994Z,16.37
2019-01-12T08:27:55.859Z,14.67
2019-01-12T08:30:25.634Z,18.37
2019-01-12T08:32:55.289Z,17.50
2019-01-12T08:35:24.947Z,16.63
2019-01-12T08:37:54.604Z,17.20
2019-01-12T08:40:24.363Z,16.87
2019-01-12T08:42:54.282Z,19.80
2019-01-12T08:45:23.998Z,21.57
2019-01-12T08:47:53.630Z,20.67
2019-01-12T08:50:23.519Z,16.43
2019-01-12T08:52:53.210Z,21.43
2019-01-12T08:55:22.973Z,14.83
2019-01-12T08:57:53.006Z,21.23
2019-01-12T09:00:23.528Z,19.23
2019-01-12T09:02:53.440Z,23.20
2019-01-12T09:05:23.242Z,13.23
2019-01-12T09:07:52.964Z,17.13
2019-01-12T09:10:23.428Z,16.73
2019-01-12T09:12:53.391Z,18.07
2019-01-12T09:15:24.669Z,26.67
2019-01-12T09:17:54.486Z,17.40
2019-01-12T09:20:24.189Z,20.47
2019-01-12T09:22:54.087Z,15.17
2019-01-12T09:25:23.722Z,16.70
2019-01-12T09:27:53.445Z,18.40
2019-01-12T09:30:23.791Z,17.10
2019-01-12T09:32:54.278Z,16.70
2019-01-12T09:35:24.003Z,21.13
2019-01-12T09:37:53.573Z,21.10
2019-01-12T09:40:23.699Z,18.63
2019-01-12T09:42:53.627Z,16.60
2019-01-12T09:45:23.539Z,22.60
2019-01-12T09:47:53.684Z,18.77
2019-01-12T09:50:23.726Z,22.17
2019-01-12T09:52:53.390Z,22.80
2019-01-12T09:55:23.316Z,18.10
2019-01-12T09:57:53.023Z,22.57
2019-01-12T10:00:25.067Z,17.87
2019-01-12T10:02:54.653Z,17.43
2019-01-12T10:05:24.394Z,17.87
2019-01-12T10:07:54.298Z,18.40
2019-01-12T10:10:24.288Z,17.00
2019-01-12T10:12:54.033Z,21.73
2019-01-12T10:15:23.746Z,18.10
2019-01-12T10:17:53.407Z,20.67
2019-01-12T10:20:22.987Z,17.83
2019-01-12T10:22:53.949Z,22.70
2019-01-12T10:25:25.108Z,16.90
2019-01-12T10:27:54.729Z,23.50
2019-01-12T10:30:26.329Z,20.10
2019-01-12T10:32:56.294Z,23.03
2019-01-12T10:35:26.195Z,22.07
2019-01-12T10:37:56.186Z,18.00
2019-01-12T10:40:26.388Z,17.67
2019-01-12T10:42:56.398Z,21.10
2019-01-12T10:45:28.388Z,16.67
2019-01-12T10:47:58.165Z,22.07
2019-01-12T10:50:35.613Z,14.57
2019-01-12T10:53:06.467Z,17.27
2019-01-12T10:55:39.537Z,19.67
2019-01-12T10:58:11.914Z,17.90
2019-01-12T11:00:42.082Z,20.10
2019-01-12T11:03:11.915Z,20.73
2019-01-12T11:05:41.717Z,21.53
2019-01-12T11:08:11.667Z,21.17
2019-01-12T11:10:41.388Z,20.63
2019-01-12T11:13:11.551Z,24.63
2019-01-12T11:15:41.818Z,20.73
2019-01-12T11:18:11.670Z,20.77
2019-01-12T11:20:41.487Z,26.20
2019-01-12T11:23:11.658Z,22.97
2019-01-12T11:25:42.964Z,21.83
2019-01-12T11:28:13.090Z,22.23
2019-01-12T11:30:42.737Z,25.10
2019-01-12T11:33:12.346Z,22.17
2019-01-12T11:35:42.244Z,27.20
2019-01-12T11:38:14.059Z,20.00
2019-01-12T11:40:46.777Z,24.60
2019-01-12T11:43:16.809Z,21.43
2019-01-12T11:45:46.437Z,22.50
2019-01-12T11:48:16.526Z,21.50
2019-01-12T11:50:46.148Z,18.07
2019-01-12T11:53:15.728Z,18.47
2019-01-12T11:55:45.532Z,20.13
2019-01-12T11:58:18.224Z,18.77
2019-01-12T12:00:48.045Z,19.50
2019-01-12T12:03:17.586Z,24.83
2019-01-12T12:05:50.639Z,17.60
2019-01-12T12:08:20.162Z,21.73
2019-01-12T12:10:51.664Z,18.73
2019-01-12T12:13:21.355Z,15.10
2019-01-12T12:15:51.628Z,21.70
2019-01-12T12:18:21.267Z,15.00
2019-01-12T12:20:52.832Z,13.27
2019-01-12T12:23:23.381Z,19.27
2019-01-12T12:25:55.795Z,20.27
2019-01-12T12:28:25.747Z,21.30
2019-01-12T12:30:55.489Z,14.73
2019-01-12T12:33:25.557Z,20.43
2019-01-12T12:35:55.399Z,15.27
2019-01-12T12:38:25.228Z,18.40
2019-01-12T12:40:55.009Z,15.00
2019-01-12T12:43:24.815Z,19.73
2019-01-12T12:45:54.532Z,13.80
2019-01-12T12:48:25.523Z,16.07
2019-01-12T12:50:55.400Z,20.07
2019-01-12T12:53:25.013Z,18.93
2019-01-12T12:55:54.909Z,20.77
2019-01-12T12:58:24.634Z,19.93
2019-01-12T13:00:54.355Z,18.10
2019-01-12T13:03:23.986Z,19.77
2019-01-12T13:05:54.009Z,22.50
2019-01-12T13:08:23.640Z,22.27
2019-01-12T13:10:53.353Z,21.07
2019-01-12T13:13:23.172Z,22.13
2019-01-12T13:15:52.939Z,21.43
2019-01-12T13:18:22.542Z,18.50
2019-01-12T13:20:52.308Z,19.23
2019-01-12T13:23:21.945Z,19.40
2019-01-12T13:25:51.554Z,14.60
2019-01-12T13:28:21.449Z,18.77
2019-01-12T13:30:51.067Z,22.40
2019-01-12T13:33:20.701Z,21.00
2019-01-12T13:35:50.617Z,16.87
2019-01-12T13:38:20.189Z,18.23
2019-01-12T13:40:49.799Z,21.83
2019-01-12T13:43:19.588Z,22.57
2019-01-12T13:45:49.198Z,18.40
2019-01-12T13:48:18.955Z,21.13
2019-01-12T13:50:48.878Z,21.43
2019-01-12T13:53:18.572Z,22.30
2019-01-12T13:55:48.245Z,16.53
2019-01-12T13:58:18.079Z,22.77
2019-01-12T14:00:47.754Z,22.40
2019-01-12T14:03:17.608Z,18.17
2019-01-12T14:05:47.389Z,18.97
2019-01-12T14:08:17.048Z,24.13
2019-01-12T14:10:46.659Z,19.27
2019-01-12T14:13:16.851Z,17.43
2019-01-12T14:15:46.626Z,23.40
2019-01-12T14:18:22.453Z,23.13
2019-01-12T14:20:48.607Z,22.60
2019-01-12T14:23:19.109Z,16.67
2019-01-12T14:25:49.028Z,18.37
2019-01-12T14:28:18.557Z,20.33
2019-01-12T14:30:48.327Z,23.10
2019-01-12T14:33:18.395Z,20.00
2019-01-12T14:35:48.040Z,20.23
2019-01-12T14:38:17.671Z,16.03
2019-01-12T14:40:47.447Z,16.93
2019-01-12T14:43:17.284Z,21.57
2019-01-12T14:45:46.976Z,21.80
2019-01-12T14:48:16.679Z,13.13
2019-01-12T14:50:46.268Z,19.90
2019-01-12T14:53:15.917Z,18.50
2019-01-12T14:55:45.747Z,23.47
2019-01-12T14:58:15.545Z,19.13
2019-01-12T15:00:45.253Z,22.27
2019-01-12T15:03:15.083Z,21.47
2019-01-12T15:05:44.739Z,20.13
2019-01-12T15:08:14.343Z,15.47
2019-01-12T15:10:44.178Z,28.53
2019-01-12T15:13:14.005Z,22.70
2019-01-12T15:15:43.655Z,22.03
2019-01-12T15:18:13.527Z,19.97
2019-01-12T15:20:43.258Z,30.60
2019-01-12T15:23:12.903Z,29.67
2019-01-12T15:25:42.839Z,29.20
2019-01-12T15:28:12.468Z,22.63
2019-01-12T15:30:42.141Z,31.03
2019-01-12T15:33:12.925Z,39.13
2019-01-12T15:35:44.360Z,39.33
2019-01-12T15:38:14.331Z,44.60
2019-01-12T15:40:43.870Z,41.00
2019-01-12T15:43:13.596Z,40.43
2019-01-12T15:45:43.867Z,38.93
2019-01-12T15:48:13.570Z,40.17
2019-01-12T15:50:43.300Z,33.40
2019-01-12T15:53:13.551Z,30.70
2019-01-12T15:55:43.181Z,29.50
2019-01-12T15:58:16.311Z,35.87
2019-01-12T16:00:44.549Z,21.27
2019-01-12T16:03:14.369Z,13.13
2019-01-12T16:05:44.150Z,11.30
2019-01-12T16:08:14.251Z,22.47
2019-01-12T16:10:44.037Z,13.80
2019-01-12T16:13:14.026Z,17.03
2019-01-12T16:15:44.031Z,14.17
2019-01-12T16:18:13.816Z,8.57
2019-01-12T16:20:43.956Z,16.30
2019-01-12T16:23:16.781Z,8.00
2019-01-12T16:25:46.502Z,11.80
2019-01-12T16:28:23.076Z,11.27
2019-01-12T16:30:48.615Z,12.87
2019-01-12T16:33:18.246Z,10.33
2019-01-12T16:35:48.281Z,15.97
2019-01-12T16:38:18.849Z,17.70
2019-01-12T16:40:48.435Z,13.83
2019-01-12T16:43:18.370Z,16.27
2019-01-12T16:45:48.127Z,20.33
2019-01-12T16:48:17.845Z,15.83
2019-01-12T16:50:47.401Z,24.00
2019-01-12T16:53:17.157Z,23.60
2019-01-12T16:55:46.857Z,17.60
2019-01-12T16:58:16.558Z,19.90
2019-01-12T17:00:46.387Z,20.17
2019-01-12T17:03:15.973Z,23.23
2019-01-12T17:05:45.580Z,23.83
2019-01-12T17:08:15.746Z,27.30
2019-01-12T17:10:45.527Z,19.50
2019-01-12T17:13:15.199Z,21.17
2019-01-12T17:15:45.449Z,20.93
2019-01-12T17:18:15.271Z,20.40
2019-01-12T17:20:45.097Z,26.80
2019-01-12T17:23:15.047Z,23.33
2019-01-12T17:25:44.887Z,24.27
2019-01-12T17:28:14.681Z,20.77
2019-01-12T17:30:47.155Z,25.70
2019-01-12T17:33:16.926Z,24.67
2019-01-12T17:35:46.505Z,25.10
2019-01-12T17:38:16.332Z,26.63
2019-01-12T17:40:45.991Z,25.90
2019-01-12T17:43:15.761Z,26.00
2019-01-12T17:45:45.754Z,16.67
2019-01-12T17:48:15.615Z,25.23
2019-01-12T17:50:45.441Z,22.97
2019-01-12T17:53:15.443Z,24.10
2019-01-12T17:55:45.279Z,23.30
2019-01-12T17:58:15.138Z,22.60
2019-01-12T18:00:50.211Z,21.70
2019-01-12T18:03:19.827Z,22.10
2019-01-12T18:05:49.467Z,21.87
2019-01-12T18:08:19.508Z,23.50
2019-01-12T18:10:49.035Z,28.23
2019-01-12T18:13:18.838Z,20.43
2019-01-12T18:15:48.535Z,18.10
2019-01-12T18:18:18.180Z,17.70
2019-01-12T18:20:47.919Z,20.10
2019-01-12T18:23:18.046Z,18.63
2019-01-12T18:25:47.856Z,19.10
2019-01-12T18:28:17.496Z,18.63
2019-01-12T18:30:47.509Z,16.03
2019-01-12T18:33:17.186Z,21.47
2019-01-12T18:35:46.901Z,17.97
2019-01-12T18:38:18.252Z,19.27
2019-01-12T18:40:47.928Z,26.70
2019-01-12T18:43:17.688Z,26.73
2019-01-12T18:45:47.336Z,23.33
2019-01-12T18:48:17.016Z,28.17
2019-01-12T18:50:46.745Z,27.07
2019-01-12T18:53:16.621Z,21.93
2019-01-12T18:55:46.759Z,17.03
2019-01-12T18:58:16.557Z,18.30
2019-01-12T19:00:46.363Z,22.50
2019-01-12T19:03:16.407Z,15.07
2019-01-12T19:05:46.464Z,19.70
2019-01-12T19:08:16.525Z,25.83
2019-01-12T19:10:46.205Z,16.93
2019-01-12T19:13:16.433Z,16.43
2019-01-12T19:15:46.390Z,17.13
2019-01-12T19:18:16.589Z,17.60
2019-01-12T19:20:48.686Z,17.23
2019-01-12T19:23:18.386Z,20.57
2019-01-12T19:25:48.236Z,19.33
2019-01-12T19:28:18.371Z,21.40
2019-01-12T19:30:48.646Z,24.27
2019-01-12T19:33:18.314Z,25.60
2019-01-12T19:35:48.214Z,20.60
2019-01-12T19:38:18.349Z,20.03
2019-01-12T19:40:47.956Z,19.27
2019-01-12T19:43:17.907Z,22.20
2019-01-12T19:45:47.619Z,21.87
2019-01-12T19:48:17.383Z,18.33
2019-01-12T19:50:47.200Z,20.00
2019-01-12T19:53:16.932Z,20.73
2019-01-12T19:55:46.586Z,16.00
2019-01-12T19:58:16.315Z,17.80
2019-01-12T20:00:46.053Z,25.03
2019-01-12T20:03:15.586Z,28.57
2019-01-12T20:05:45.627Z,24.43
2019-01-12T20:08:15.611Z,21.27
2019-01-12T20:10:45.500Z,21.80
2019-01-12T20:13:15.793Z,22.80
2019-01-12T20:15:45.466Z,22.50
2019-01-12T20:18:15.046Z,18.17
2019-01-12T20:20:45.061Z,24.33
2019-01-12T20:23:14.815Z,16.07
2019-01-12T20:25:45.440Z,16.90
2019-01-12T20:28:17.984Z,21.40
2019-01-12T20:30:54.420Z,16.70
2019-01-12T20:33:36.489Z,15.80
2019-01-12T20:36:48.420Z,20.80
2019-01-12T20:40:14.118Z,20.40
2019-01-12T20:43:12.154Z,20.13
2019-01-12T20:46:17.179Z,22.17
2019-01-12T20:49:16.932Z,37.53
2019-01-12T20:52:30.565Z,34.70
2019-01-12T20:55:49.183Z,26.33
2019-01-12T20:58:48.988Z,35.80
2019-01-12T21:01:54.904Z,26.93
2019-01-12T21:04:53.654Z,54.00
2019-01-12T21:08:07.426Z,28.33
2019-01-12T21:11:15.157Z,40.13
2019-01-12T21:14:07.642Z,46.75
2019-01-12T21:16:49.886Z,33.08
2019-01-12T21:19:19.497Z,30.60
2019-01-12T21:21:49.070Z,18.48
2019-01-12T21:24:18.854Z,26.42
2019-01-12T21:26:48.416Z,34.27
2019-01-12T21:29:17.938Z,31.53
2019-01-12T21:31:47.765Z,25.97
2019-01-12T21:34:17.549Z,31.07
2019-01-12T21:36:47.198Z,33.35
2019-01-12T21:39:17.024Z,35.52
2019-01-12T21:41:48.118Z,39.13
2019-01-12T21:44:18.031Z,17.42
2019-01-12T21:46:47.813Z,43.17
2019-01-12T21:49:17.726Z,41.83
2019-01-12T21:51:47.633Z,39.07
2019-01-12T21:54:17.372Z,38.80
2019-01-12T21:56:47.115Z,47.80
2019-01-12T21:59:17.123Z,44.23
2019-01-12T22:01:46.647Z,55.80
2019-01-12T22:04:16.275Z,24.27
2019-01-12T22:06:46.051Z,27.25
2019-01-12T22:09:17.065Z,17.07
2019-01-12T22:11:46.704Z,41.13
2019-01-12T22:14:17.769Z,26.77
2019-01-12T22:16:47.440Z,28.00
2019-01-12T22:19:17.427Z,19.30
2019-01-12T22:21:47.105Z,26.93
2019-01-12T22:24:18.115Z,22.93
2019-01-12T22:26:47.883Z,35.25
2019-01-12T22:29:17.769Z,16.52
2019-01-12T22:31:47.361Z,51.10
2019-01-12T22:34:17.147Z,23.52
2019-01-12T22:36:46.830Z,96.87
2019-01-12T22:39:16.389Z,84.47
2019-01-12T22:41:46.295Z,95.47
2019-01-12T22:44:16.089Z,68.52
2019-01-12T22:46:45.773Z,32.45
2019-01-12T22:49:18.724Z,56.30
2019-01-12T22:51:48.341Z,26.68
2019-01-12T22:54:17.938Z,52.30
2019-01-12T22:56:47.978Z,83.85
2019-01-12T22:59:17.629Z,45.92
2019-01-12T23:01:57.311Z,24.92
2019-01-12T23:04:28.417Z,21.60
2019-01-12T23:06:58.262Z,33.18
2019-01-12T23:09:28.042Z,35.50
2019-01-12T23:11:57.699Z,46.90
2019-01-12T23:14:27.753Z,23.63
2019-01-12T23:16:57.491Z,22.07
2019-01-12T23:19:27.413Z,28.87
2019-01-12T23:21:57.237Z,42.75
2019-01-12T23:24:26.951Z,35.05
2019-01-12T23:26:56.865Z,58.75
2019-01-12T23:29:26.821Z,27.58
2019-01-12T23:31:56.687Z,25.77
2019-01-12T23:34:26.332Z,40.30
2019-01-12T23:36:56.328Z,29.48
2019-01-12T23:39:25.985Z,36.35
2019-01-12T23:41:55.640Z,24.43
2019-01-12T23:44:25.472Z,37.58
2019-01-12T23:46:55.225Z,24.63
2019-01-12T23:49:24.918Z,20.82
2019-01-12T23:51:54.700Z,36.80
2019-01-12T23:54:24.546Z,32.70
2019-01-12T23:56:54.261Z,30.82
2019-01-12T23:59:24.018Z,26.10
